Time;durP1;ratioP1;P1;durP2;ratioP2;P2;SDS_P1;SDS_P2;PMS_P1;PMS_P2;Temp;Humidity;BMP_temperature;BMP_pressure;BME280_temperature;BME280_humidity;BME280_pressure;Samples;Min_cycle;Max_cycle;Signal;HPM_P1;HPM_P2
2023/06/13 00:01:48;;;;;;;5.65;2.30;;;19.90;53.40;;;;;;6122127;23;20045;-63
2023/06/13 00:04:34;;;;;;;9.27;2.58;;;19.90;53.40;;;;;;6119233;23;20391;-63
2023/06/13 00:07:20;;;;;;;3.35;2.13;;;19.80;53.40;;;;;;6121240;23;20025;-64
2023/06/13 00:10:06;;;;;;;4.03;2.22;;;19.80;53.60;;;;;;6120014;23;20022;-63
2023/06/13 00:12:52;;;;;;;5.05;2.70;;;19.80;53.70;;;;;;6122585;23;20006;-62
2023/06/13 00:15:46;;;;;;;3.67;1.92;;;19.70;53.60;;;;;;6120437;23;20018;-62
2023/06/13 00:18:32;;;;;;;4.07;2.00;;;19.70;53.80;;;;;;6123784;23;20022;-63
2023/06/13 00:21:18;;;;;;;4.20;2.60;;;19.60;54.00;;;;;;6121550;23;20427;-63
2023/06/13 00:24:04;;;;;;;6.07;2.65;;;19.60;54.10;;;;;;6121956;23;20380;-63
2023/06/13 00:26:50;;;;;;;4.43;2.50;;;19.60;54.10;;;;;;6120942;23;20017;-62
2023/06/13 00:29:37;;;;;;;3.30;2.00;;;19.50;54.20;;;;;;6121341;23;20141;-64
2023/06/13 00:32:23;;;;;;;4.70;2.47;;;19.60;54.40;;;;;;6122346;23;20045;-64
2023/06/13 00:35:09;;;;;;;4.18;2.40;;;19.50;54.40;;;;;;6120995;23;20064;-62
2023/06/13 00:37:56;;;;;;;5.32;2.53;;;19.50;54.40;;;;;;6121859;23;20069;-63
2023/06/13 00:40:42;;;;;;;4.13;2.42;;;19.50;54.60;;;;;;6121698;23;20041;-62
2023/06/13 00:43:28;;;;;;;4.93;2.78;;;19.40;54.80;;;;;;6100859;23;20045;-63
2023/06/13 00:46:17;;;;;;;3.60;2.20;;;19.40;54.80;;;;;;6120478;23;20017;-63
2023/06/13 00:49:04;;;;;;;4.13;2.70;;;19.40;55.00;;;;;;6122743;23;20009;-63
2023/06/13 00:51:51;;;;;;;4.07;2.42;;;19.40;55.10;;;;;;6123282;23;20041;-63
2023/06/13 00:54:37;;;;;;;4.63;2.60;;;19.30;55.10;;;;;;6121780;23;20100;-62
2023/06/13 00:57:24;;;;;;;5.07;2.50;;;19.20;55.30;;;;;;6102640;23;20037;-63
2023/06/13 01:00:10;;;;;;;3.58;2.25;;;19.20;55.30;;;;;;6119284;23;20343;-62
2023/06/13 01:02:59;;;;;;;5.47;2.83;;;19.20;55.40;;;;;;6123315;23;20036;-62
2023/06/13 01:05:47;;;;;;;5.10;2.40;;;19.20;55.50;;;;;;6121481;23;20522;-62
2023/06/13 01:08:37;;;;;;;5.50;2.85;;;19.20;55.60;;;;;;6124108;23;20577;-62
2023/06/13 01:11:50;;;;;;;10.80;3.10;;;19.20;55.60;;;;;;6122590;23;20010;-63
2023/06/13 01:14:51;;;;;;;4.60;2.83;;;19.20;55.80;;;;;;6119492;23;20009;-64
2023/06/13 01:17:49;;;;;;;4.80;2.97;;;19.10;55.90;;;;;;6122356;23;20014;-63
2023/06/13 01:20:36;;;;;;;5.25;2.97;;;19.10;56.10;;;;;;6121532;23;20014;-62
2023/06/13 01:23:28;;;;;;;5.70;2.65;;;19.00;56.10;;;;;;6121607;23;20041;-62
2023/06/13 01:26:33;;;;;;;4.53;2.67;;;19.00;56.20;;;;;;6121437;23;20432;-63
2023/06/13 01:29:20;;;;;;;5.45;3.05;;;19.00;56.40;;;;;;6121433;23;20009;-62
2023/06/13 01:32:07;;;;;;;4.13;2.67;;;18.90;56.30;;;;;;6122152;23;20506;-73
2023/06/13 01:34:54;;;;;;;7.68;3.22;;;18.90;56.50;;;;;;6121746;23;20045;-73
2023/06/13 01:37:41;;;;;;;3.08;2.40;;;18.80;56.60;;;;;;6102393;23;20081;-72
2023/06/13 01:40:27;;;;;;;6.45;2.70;;;18.80;56.80;;;;;;6101920;23;20049;-72
2023/06/13 01:43:13;;;;;;;4.82;2.88;;;18.70;56.90;;;;;;6120911;23;20032;-71
2023/06/13 01:46:17;;;;;;;6.28;2.70;;;18.70;57.00;;;;;;6116639;23;20048;-72
2023/06/13 01:49:21;;;;;;;6.38;3.60;;;18.60;57.20;;;;;;6119484;23;20072;-71
2023/06/13 01:52:16;;;;;;;4.47;2.57;;;18.60;57.30;;;;;;6121761;23;20388;-72
2023/06/13 01:55:16;;;;;;;3.67;2.53;;;18.50;57.30;;;;;;6118912;23;20045;-71
2023/06/13 01:58:16;;;;;;;5.68;2.70;;;18.40;57.50;;;;;;6121413;23;20091;-72
2023/06/13 02:01:05;;;;;;;4.70;3.22;;;18.40;57.70;;;;;;6102111;23;20021;-72
2023/06/13 02:03:51;;;;;;;4.45;2.40;;;18.40;57.80;;;;;;6101423;23;20010;-72
2023/06/13 02:06:37;;;;;;;4.18;2.90;;;18.30;57.90;;;;;;6122731;23;20097;-72
2023/06/13 02:09:23;;;;;;;3.88;2.78;;;18.30;58.10;;;;;;6119765;23;20014;-72
2023/06/13 02:12:10;;;;;;;3.92;2.40;;;18.30;58.30;;;;;;6120677;23;20465;-72
2023/06/13 02:14:56;;;;;;;5.95;2.92;;;18.20;58.30;;;;;;6121614;23;20590;-73
2023/06/13 02:17:42;;;;;;;3.97;2.80;;;18.20;58.50;;;;;;6121326;23;20330;-71
2023/06/13 02:20:28;;;;;;;3.78;2.53;;;18.20;58.60;;;;;;6119706;23;20010;-72
2023/06/13 02:23:15;;;;;;;6.45;3.40;;;18.10;58.70;;;;;;6121468;23;20014;-72
2023/06/13 02:26:02;;;;;;;4.65;2.92;;;18.10;58.80;;;;;;6121401;23;20388;-71
2023/06/13 02:28:48;;;;;;;5.50;2.63;;;18.10;59.10;;;;;;6120448;23;20108;-71
2023/06/13 02:31:37;;;;;;;4.93;2.65;;;18.00;59.10;;;;;;6123198;23;20033;-72
2023/06/13 02:34:23;;;;;;;5.55;3.13;;;18.00;59.30;;;;;;6121593;23;20014;-72
2023/06/13 02:37:09;;;;;;;6.88;2.95;;;18.00;59.40;;;;;;6121899;23;20017;-70
2023/06/13 02:39:55;;;;;;;5.72;3.60;;;17.90;59.40;;;;;;6122325;23;20017;-71
2023/06/13 02:42:41;;;;;;;14.07;3.67;;;17.90;59.50;;;;;;6123030;23;20459;-71
2023/06/13 02:45:27;;;;;;;6.05;3.67;;;18.00;60.10;;;;;;6122092;23;20026;-70
2023/06/13 02:48:14;;;;;;;5.93;3.97;;;17.90;59.60;;;;;;6122600;23;20321;-70
2023/06/13 02:51:00;;;;;;;6.65;4.80;;;17.90;59.70;;;;;;6121219;23;20021;-69
2023/06/13 02:53:46;;;;;;;10.60;5.25;;;17.90;59.80;;;;;;6122587;23;20018;-72
2023/06/13 02:56:32;;;;;;;5.90;3.97;;;17.90;59.90;;;;;;6122982;23;20014;-73
2023/06/13 02:59:19;;;;;;;6.50;3.67;;;17.90;60.00;;;;;;6122493;23;20038;-72
2023/06/13 03:02:05;;;;;;;5.32;3.60;;;17.80;60.10;;;;;;6122497;23;20014;-74
2023/06/13 03:04:52;;;;;;;6.40;3.00;;;17.80;60.10;;;;;;6120891;23;20391;-75
2023/06/13 03:07:42;;;;;;;5.93;2.95;;;17.80;60.30;;;;;;6122134;23;20021;-75
2023/06/13 03:10:28;;;;;;;5.97;3.22;;;17.80;60.50;;;;;;6121991;23;20049;-71
2023/06/13 03:13:16;;;;;;;5.28;3.15;;;17.70;60.50;;;;;;6121588;23;20094;-72
2023/06/13 03:16:03;;;;;;;5.30;3.03;;;17.70;60.60;;;;;;6123107;23;20406;-72
2023/06/13 03:18:50;;;;;;;6.43;3.03;;;17.70;60.70;;;;;;6120591;23;20021;-72
2023/06/13 03:21:36;;;;;;;5.25;3.05;;;17.70;60.90;;;;;;6122426;23;20440;-71
2023/06/13 03:24:22;;;;;;;5.97;3.10;;;17.70;61.00;;;;;;6124365;23;20452;-71
2023/06/13 03:27:09;;;;;;;5.97;2.45;;;17.70;61.20;;;;;;6122416;23;20017;-71
2023/06/13 03:29:55;;;;;;;5.43;3.28;;;17.70;61.10;;;;;;6121658;23;20113;-72
2023/06/13 03:32:41;;;;;;;6.60;3.10;;;17.60;61.10;;;;;;6101140;23;20014;-71
2023/06/13 03:35:27;;;;;;;5.15;2.80;;;17.60;61.20;;;;;;6121747;23;20022;-72
2023/06/13 03:38:13;;;;;;;3.70;2.50;;;17.60;61.30;;;;;;6122606;23;20085;-72
2023/06/13 03:40:59;;;;;;;6.25;3.00;;;17.60;61.90;;;;;;6100527;23;20018;-71
2023/06/13 03:43:45;;;;;;;5.07;3.00;;;17.60;61.50;;;;;;6125419;23;20522;-73
2023/06/13 03:46:31;;;;;;;5.32;3.13;;;17.60;61.60;;;;;;6122934;23;20017;-75
2023/06/13 03:49:18;;;;;;;4.88;2.88;;;17.60;61.80;;;;;;6122066;23;20123;-72
2023/06/13 03:52:04;;;;;;;5.43;3.50;;;17.60;61.80;;;;;;6122310;23;20100;-72
2023/06/13 03:54:51;;;;;;;5.50;2.58;;;17.60;62.00;;;;;;6124038;23;20010;-72
2023/06/13 03:57:37;;;;;;;5.15;3.00;;;17.60;62.20;;;;;;6121811;23;20005;-72
2023/06/13 04:00:23;;;;;;;5.35;2.38;;;17.60;62.40;;;;;;6120763;23;20014;-72
2023/06/13 04:03:09;;;;;;;9.25;3.00;;;17.60;62.20;;;;;;6122787;23;20375;-72
2023/06/13 04:05:55;;;;;;;10.10;3.25;;;17.60;62.30;;;;;;6122481;23;20018;-72
2023/06/13 04:08:41;;;;;;;4.63;2.67;;;17.70;62.40;;;;;;6122414;23;20014;-72
2023/06/13 04:11:29;;;;;;;5.88;2.97;;;17.70;62.50;;;;;;6121489;23;20014;-71
2023/06/13 04:14:15;;;;;;;5.00;3.03;;;17.70;62.60;;;;;;6119357;23;20048;-71
2023/06/13 04:17:01;;;;;;;4.40;2.58;;;17.70;62.70;;;;;;6122095;23;20006;-72
2023/06/13 04:19:48;;;;;;;6.45;3.00;;;17.70;62.60;;;;;;6120145;23;20078;-70
2023/06/13 04:22:35;;;;;;;3.65;2.22;;;17.80;62.70;;;;;;6122553;23;20444;-71
2023/06/13 04:25:22;;;;;;;4.75;2.65;;;17.80;62.70;;;;;;6121721;23;20026;-68
2023/06/13 04:28:08;;;;;;;6.00;2.55;;;17.90;62.80;;;;;;6122380;23;20303;-68
2023/06/13 04:30:54;;;;;;;5.15;2.85;;;17.90;62.80;;;;;;6122004;23;20017;-69
2023/06/13 04:33:41;;;;;;;6.50;3.10;;;18.00;63.00;;;;;;6121782;23;20006;-71
2023/06/13 04:36:28;;;;;;;5.40;2.60;;;17.90;63.40;;;;;;6121043;23;20474;-73
2023/06/13 04:39:15;;;;;;;8.48;3.00;;;17.90;63.30;;;;;;6122307;23;20033;-71
2023/06/13 04:42:01;;;;;;;4.50;3.08;;;17.90;63.30;;;;;;6123246;23;20009;-73
2023/06/13 04:44:48;;;;;;;6.93;3.10;;;17.80;63.50;;;;;;6120922;23;20447;-68
2023/06/13 04:47:34;;;;;;;7.35;3.50;;;17.80;63.50;;;;;;6122722;23;20069;-74
2023/06/13 04:50:21;;;;;;;5.75;3.30;;;17.80;63.60;;;;;;6120114;23;20021;-73
2023/06/13 04:53:11;;;;;;;5.30;2.85;;;17.80;63.80;;;;;;6121791;23;20466;-74
2023/06/13 04:55:58;;;;;;;76.45;8.40;;;17.90;63.80;;;;;;6122287;23;20005;-74
2023/06/13 04:58:43;;;;;;;6.55;3.13;;;17.90;64.10;;;;;;6099802;23;20010;-73
2023/06/13 05:01:32;;;;;;;5.30;2.80;;;18.00;63.80;;;;;;6121679;23;20478;-75
2023/06/13 05:04:18;;;;;;;4.95;3.30;;;18.00;63.80;;;;;;6121680;23;20021;-75
2023/06/13 05:07:06;;;;;;;4.82;3.03;;;18.00;63.50;;;;;;6120585;23;20359;-74
2023/06/13 05:09:52;;;;;;;6.53;3.47;;;18.10;63.50;;;;;;6120758;23;20006;-73
2023/06/13 05:12:38;;;;;;;4.38;2.95;;;18.20;63.30;;;;;;6122089;23;20019;-74
2023/06/13 05:15:24;;;;;;;4.10;2.90;;;18.20;63.20;;;;;;6118937;23;20475;-72
2023/06/13 05:18:12;;;;;;;4.72;2.95;;;18.30;62.90;;;;;;6121684;23;20026;-72
2023/06/13 05:20:59;;;;;;;6.75;3.00;;;18.30;62.70;;;;;;6121898;23;20357;-72
2023/06/13 05:23:45;;;;;;;5.82;3.00;;;18.30;62.40;;;;;;6101528;23;20033;-71
2023/06/13 05:26:32;;;;;;;5.40;3.30;;;18.40;62.80;;;;;;6120487;23;20014;-71
2023/06/13 05:29:18;;;;;;;7.47;3.30;;;18.40;62.80;;;;;;6122209;23;20052;-72
2023/06/13 05:32:05;;;;;;;4.38;2.75;;;18.50;62.50;;;;;;6121036;23;20065;-72
2023/06/13 05:34:50;;;;;;;7.60;2.90;;;18.60;62.60;;;;;;6099446;23;20392;-72
2023/06/13 05:37:37;;;;;;;8.77;3.20;;;18.60;62.40;;;;;;6119900;23;20085;-71
2023/06/13 05:40:23;;;;;;;5.25;2.70;;;18.60;62.00;;;;;;6118752;23;20018;-70
2023/06/13 05:43:10;;;;;;;6.88;3.05;;;18.60;61.90;;;;;;6120921;23;20460;-72
2023/06/13 05:45:56;;;;;;;7.45;3.03;;;18.60;61.90;;;;;;6121032;23;20018;-71
2023/06/13 05:48:41;;;;;;;7.22;3.35;;;18.70;61.90;;;;;;6120586;23;20016;-72
2023/06/13 05:51:28;;;;;;;6.03;3.85;;;18.70;61.90;;;;;;6120607;23;20105;-72
2023/06/13 05:54:14;;;;;;;9.88;4.13;;;18.70;61.80;;;;;;6120785;23;20045;-71
2023/06/13 05:57:00;;;;;;;6.32;3.17;;;18.80;61.80;;;;;;6120256;23;20021;-70
2023/06/13 05:59:46;;;;;;;8.00;3.55;;;18.80;62.00;;;;;;6116933;23;20014;-66
2023/06/13 06:02:32;;;;;;;5.85;3.75;;;18.90;61.20;;;;;;6119773;23;20029;-67
2023/06/13 06:05:21;;;;;;;8.57;3.40;;;19.00;61.00;;;;;;6117814;23;20076;-66
2023/06/13 06:08:07;;;;;;;6.40;3.20;;;19.00;60.80;;;;;;6118599;23;20056;-67
2023/06/13 06:10:53;;;;;;;4.22;2.80;;;19.10;60.90;;;;;;6120073;23;20522;-66
2023/06/13 06:13:39;;;;;;;5.88;3.05;;;19.20;60.90;;;;;;6119669;23;20017;-65
2023/06/13 06:16:25;;;;;;;9.23;3.55;;;19.30;60.60;;;;;;6118488;23;20018;-66
2023/06/13 06:19:11;;;;;;;5.57;3.15;;;19.30;60.30;;;;;;6119646;23;20439;-66
2023/06/13 06:21:57;;;;;;;6.00;3.70;;;19.40;60.30;;;;;;6120412;23;20017;-62
2023/06/13 06:24:43;;;;;;;5.82;3.45;;;19.40;60.20;;;;;;6119136;23;20018;-63
2023/06/13 06:27:29;;;;;;;7.32;3.33;;;19.50;59.80;;;;;;6119140;23;20077;-64
2023/06/13 06:30:15;;;;;;;8.93;3.72;;;19.40;59.50;;;;;;6118468;23;20017;-64
2023/06/13 06:33:01;;;;;;;5.45;3.22;;;19.40;59.50;;;;;;6119095;23;20460;-64
2023/06/13 06:35:47;;;;;;;6.38;3.17;;;19.40;59.60;;;;;;6119486;23;20014;-64
2023/06/13 06:38:33;;;;;;;7.32;3.40;;;19.50;59.90;;;;;;6120708;23;20017;-64
2023/06/13 06:41:19;;;;;;;7.00;2.97;;;19.50;60.00;;;;;;6121741;23;20014;-63
2023/06/13 06:44:05;;;;;;;5.90;3.20;;;19.60;59.80;;;;;;6117337;23;20020;-63
2023/06/13 06:46:51;;;;;;;4.55;3.15;;;19.60;59.50;;;;;;6120258;23;20096;-63
2023/06/13 06:49:37;;;;;;;11.02;3.50;;;19.70;59.40;;;;;;6119981;23;20010;-64
2023/06/13 06:52:23;;;;;;;4.80;3.20;;;19.70;59.20;;;;;;6120637;23;20048;-64
2023/06/13 06:55:09;;;;;;;4.72;2.95;;;19.70;58.80;;;;;;6119612;23;20519;-64
2023/06/13 06:57:55;;;;;;;3.67;2.92;;;19.80;58.60;;;;;;6120020;23;20387;-63
2023/06/13 07:00:41;;;;;;;6.00;3.35;;;19.80;58.40;;;;;;6119569;23;20380;-64
2023/06/13 07:03:27;;;;;;;6.13;3.63;;;19.90;58.10;;;;;;6119857;23;20411;-64
2023/06/13 07:06:13;;;;;;;5.47;3.33;;;20.00;58.10;;;;;;6119606;23;20049;-65
2023/06/13 07:08:59;;;;;;;5.30;3.05;;;20.10;58.10;;;;;;6119561;23;20084;-63
2023/06/13 07:11:45;;;;;;;10.18;3.17;;;20.20;57.80;;;;;;6118855;23;20017;-64
2023/06/13 07:14:31;;;;;;;6.93;2.88;;;20.20;57.70;;;;;;6121617;23;20033;-64
2023/06/13 07:17:17;;;;;;;5.63;3.22;;;20.30;57.80;;;;;;6121202;23;20022;-63
2023/06/13 07:20:05;;;;;;;4.45;2.85;;;20.40;57.70;;;;;;6121454;23;20014;-62
2023/06/13 07:22:51;;;;;;;5.50;2.95;;;20.50;57.30;;;;;;6122244;23;20447;-64
2023/06/13 07:25:37;;;;;;;7.40;3.90;;;20.60;56.90;;;;;;6120761;23;20054;-64
2023/06/13 07:28:23;;;;;;;7.43;3.05;;;20.70;57.50;;;;;;6122250;23;20528;-62
2023/06/13 07:31:09;;;;;;;9.10;2.70;;;20.80;56.60;;;;;;6120347;23;20022;-63
2023/06/13 07:33:55;;;;;;;7.72;3.20;;;20.90;56.70;;;;;;6122224;23;20010;-63
2023/06/13 07:36:41;;;;;;;5.22;2.85;;;21.00;56.90;;;;;;6122194;23;20014;-64
2023/06/13 07:39:27;;;;;;;4.70;2.97;;;21.00;57.10;;;;;;6121876;23;20054;-65
2023/06/13 07:42:13;;;;;;;8.20;2.78;;;21.20;57.10;;;;;;6121223;23;20072;-65
2023/06/13 07:44:59;;;;;;;6.93;2.95;;;21.20;57.50;;;;;;6121631;23;20022;-65
2023/06/13 07:47:44;;;;;;;9.85;3.08;;;21.30;57.30;;;;;;6122898;23;20064;-65
2023/06/13 07:50:30;;;;;;;5.32;3.08;;;21.40;56.60;;;;;;6123135;23;20032;-65
2023/06/13 07:53:16;;;;;;;4.63;2.95;;;21.50;56.50;;;;;;6121604;23;20352;-65
2023/06/13 07:56:04;;;;;;;7.47;2.55;;;21.50;56.00;;;;;;6121579;23;20018;-66
2023/06/13 07:58:50;;;;;;;7.53;2.90;;;21.50;56.40;;;;;;6122433;23;20066;-64
2023/06/13 08:01:36;;;;;;;6.50;2.95;;;21.60;56.70;;;;;;6124377;23;20448;-65
2023/06/13 08:04:22;;;;;;;8.18;3.25;;;21.50;56.40;;;;;;6121115;23;20355;-64
2023/06/13 08:07:09;;;;;;;6.78;2.90;;;21.50;55.80;;;;;;6100903;23;20026;-65
2023/06/13 08:09:54;;;;;;;9.25;3.33;;;21.50;55.90;;;;;;6122584;23;20017;-65
2023/06/13 08:12:40;;;;;;;4.28;2.60;;;21.50;56.30;;;;;;6121296;23;20018;-65
2023/06/13 08:15:26;;;;;;;6.13;3.25;;;21.50;56.00;;;;;;6121895;23;20380;-64
2023/06/13 08:18:13;;;;;;;7.03;3.28;;;21.50;56.30;;;;;;6121616;23;20022;-64
2023/06/13 08:20:59;;;;;;;11.35;3.50;;;21.60;56.20;;;;;;6122376;23;20034;-65
2023/06/13 08:23:45;;;;;;;6.15;2.80;;;21.60;56.30;;;;;;6121944;23;20018;-65
2023/06/13 08:26:32;;;;;;;5.78;3.03;;;21.60;56.20;;;;;;6121108;23;20025;-64
2023/06/13 08:29:18;;;;;;;8.10;3.55;;;21.60;55.90;;;;;;6120034;23;20225;-65
2023/06/13 08:32:04;;;;;;;5.40;3.42;;;21.70;55.70;;;;;;6122641;23;20017;-64
2023/06/13 08:34:51;;;;;;;7.72;3.72;;;21.60;55.80;;;;;;6119685;23;20594;-65
2023/06/13 08:37:38;;;;;;;6.13;3.20;;;21.60;55.60;;;;;;6120755;23;20013;-65
2023/06/13 08:40:24;;;;;;;5.43;2.92;;;21.70;55.80;;;;;;6119829;23;20089;-65
2023/06/13 08:43:10;;;;;;;5.70;3.17;;;21.70;55.10;;;;;;6121606;23;20018;-65
2023/06/13 08:45:56;;;;;;;12.77;2.83;;;21.70;55.20;;;;;;6121828;23;20057;-65
2023/06/13 08:48:42;;;;;;;5.28;2.97;;;21.60;55.20;;;;;;6122826;23;20186;-65
2023/06/13 08:51:32;;;;;;;5.85;2.80;;;21.60;55.30;;;;;;6121457;23;20018;-65
2023/06/13 08:54:19;;;;;;;3.92;2.55;;;21.70;55.30;;;;;;6123439;23;20165;-65
2023/06/13 08:57:06;;;;;;;7.55;3.63;;;21.60;56.00;;;;;;6101967;23;20108;-65
2023/06/13 08:59:53;;;;;;;6.80;3.28;;;21.60;55.50;;;;;;6120612;23;20010;-65
2023/06/13 09:02:45;;;;;;;8.13;3.42;;;21.50;55.50;;;;;;6121559;23;20049;-65
2023/06/13 09:05:32;;;;;;;9.57;3.28;;;21.60;55.70;;;;;;6121407;23;20029;-65
2023/06/13 09:08:18;;;;;;;4.50;3.03;;;21.70;55.80;;;;;;6120332;23;20020;-65
2023/06/13 09:11:05;;;;;;;8.30;2.55;;;21.70;55.80;;;;;;6121963;23;20092;-65
2023/06/13 09:13:55;;;;;;;7.28;2.80;;;21.80;55.80;;;;;;6122188;23;20503;-66
2023/06/13 09:16:41;;;;;;;9.32;3.85;;;21.90;56.00;;;;;;6121890;23;20006;-63
2023/06/13 09:19:27;;;;;;;5.47;2.78;;;21.90;55.80;;;;;;6121503;23;20101;-64
2023/06/13 09:22:16;;;;;;;5.65;2.78;;;22.00;56.00;;;;;;6119873;23;20061;-64
2023/06/13 09:25:04;;;;;;;14.93;3.70;;;22.10;55.00;;;;;;6123245;23;20440;-64
2023/06/13 09:27:50;;;;;;;5.35;2.90;;;22.20;54.60;;;;;;6123545;23;20010;-64
2023/06/13 09:30:44;;;;;;;4.50;3.13;;;22.20;53.90;;;;;;6120983;23;20088;-65
2023/06/13 09:33:30;;;;;;;6.20;3.13;;;22.30;54.60;;;;;;6121025;23;20097;-65
2023/06/13 09:36:17;;;;;;;5.90;2.72;;;22.40;54.10;;;;;;6120012;23;20020;-65
2023/06/13 09:39:04;;;;;;;3.45;2.15;;;22.60;54.10;;;;;;6119268;23;20014;-64
2023/06/13 09:41:55;;;;;;;4.45;2.40;;;22.70;52.50;;;;;;6118039;23;20026;-66
2023/06/13 09:44:41;;;;;;;4.57;1.95;;;22.80;51.10;;;;;;6121923;23;20032;-66
2023/06/13 09:47:27;;;;;;;6.00;2.50;;;22.90;50.70;;;;;;6121284;23;20025;-67
2023/06/13 09:50:13;;;;;;;6.65;3.38;;;23.10;51.00;;;;;;6121597;23;20321;-65
2023/06/13 09:53:01;;;;;;;5.32;2.70;;;23.30;50.90;;;;;;6119107;23;20550;-66
2023/06/13 09:55:49;;;;;;;7.70;2.88;;;23.40;50.30;;;;;;6118772;23;20018;-66
2023/06/13 09:58:36;;;;;;;4.57;2.72;;;23.40;50.60;;;;;;6120003;23;20002;-65
2023/06/13 10:01:22;;;;;;;6.47;2.83;;;23.50;50.50;;;;;;6119868;23;20006;-65
2023/06/13 10:04:09;;;;;;;3.28;2.20;;;23.60;51.00;;;;;;6098986;23;20016;-66
2023/06/13 10:06:55;;;;;;;8.55;2.65;;;23.70;50.70;;;;;;6121522;23;20018;-68
2023/06/13 10:09:41;;;;;;;6.45;2.55;;;23.70;49.60;;;;;;6120357;23;20531;-68
2023/06/13 10:12:28;;;;;;;6.93;3.03;;;23.80;50.10;;;;;;6121349;23;20014;-67
2023/06/13 10:15:27;;;;;;;7.03;2.38;;;23.80;48.80;;;;;;6121338;23;20006;-66
2023/06/13 10:18:18;;;;;;;3.53;2.47;;;23.70;48.90;;;;;;6118218;23;20415;-69
2023/06/13 10:21:06;;;;;;;7.15;2.55;;;23.70;49.00;;;;;;6118607;23;20269;-67
2023/06/13 10:23:54;;;;;;;6.40;2.60;;;23.80;49.40;;;;;;6118815;23;20014;-67
2023/06/13 10:26:45;;;;;;;5.10;2.53;;;23.80;49.70;;;;;;6122207;23;20048;-67
2023/06/13 10:30:00;;;;;;;7.43;3.03;;;24.00;49.80;;;;;;6121249;23;20380;-68
2023/06/13 10:33:01;;;;;;;5.68;2.40;;;24.00;49.60;;;;;;6115569;23;20021;-68
2023/06/13 10:35:48;;;;;;;4.40;2.10;;;24.00;48.90;;;;;;6117907;23;20042;-67
2023/06/13 10:38:57;;;;;;;6.95;2.38;;;24.00;49.40;;;;;;6119040;23;20081;-67
2023/06/13 10:41:53;;;;;;;5.72;2.10;;;24.00;48.00;;;;;;6120951;23;20245;-67
2023/06/13 10:44:53;;;;;;;3.92;1.90;;;23.90;47.30;;;;;;6119710;23;20029;-68
2023/06/13 10:47:39;;;;;;;5.30;2.38;;;23.90;48.00;;;;;;6121208;23;20014;-68
2023/06/13 10:50:26;;;;;;;6.15;2.10;;;23.80;48.10;;;;;;6119573;23;20076;-67
2023/06/13 10:53:26;;;;;;;3.95;1.95;;;23.80;48.10;;;;;;6121105;23;20017;-67
2023/06/13 10:56:12;;;;;;;4.60;2.30;;;23.80;48.20;;;;;;6119879;23;20021;-66
2023/06/13 10:59:06;;;;;;;3.22;2.08;;;23.80;48.40;;;;;;6120732;23;20014;-68
2023/06/13 11:01:53;;;;;;;4.85;2.40;;;23.90;48.70;;;;;;6122385;23;20351;-67
2023/06/13 11:04:40;;;;;;;5.32;2.10;;;24.00;48.30;;;;;;6120116;23;20029;-68
2023/06/13 11:07:28;;;;;;;5.78;2.50;;;24.00;48.30;;;;;;6122252;23;20014;-67
2023/06/13 11:10:16;;;;;;;4.90;2.15;;;23.90;47.50;;;;;;6123305;23;20010;-68
2023/06/13 11:13:16;;;;;;;4.40;2.30;;;23.90;48.30;;;;;;6121746;23;20058;-68
2023/06/13 11:16:36;;;;;;;3.83;2.00;;;23.80;48.40;;;;;;6122172;23;20419;-67
2023/06/13 11:19:27;;;;;;;3.60;2.25;;;23.80;48.80;;;;;;6097290;23;20033;-66
2023/06/13 11:22:13;;;;;;;6.18;2.72;;;23.80;48.90;;;;;;6121149;23;20010;-67
2023/06/13 11:24:59;;;;;;;3.95;2.25;;;23.80;49.00;;;;;;6122691;23;20475;-67
2023/06/13 11:27:46;;;;;;;6.30;2.20;;;23.70;49.10;;;;;;6120952;23;20016;-68
2023/06/13 11:30:32;;;;;;;4.50;2.53;;;23.70;49.30;;;;;;6121368;23;20045;-67
2023/06/13 11:33:19;;;;;;;4.32;2.55;;;23.80;49.60;;;;;;6120842;23;20460;-68
2023/06/13 11:36:06;;;;;;;5.28;2.42;;;23.70;49.80;;;;;;6122604;23;20396;-67
2023/06/13 11:38:58;;;;;;;6.28;2.83;;;23.70;49.70;;;;;;6121980;23;20359;-67
2023/06/13 11:41:44;;;;;;;4.95;2.60;;;23.70;49.80;;;;;;6121917;23;20021;-67
2023/06/13 11:44:31;;;;;;;3.95;2.05;;;23.60;49.30;;;;;;6121319;23;20014;-68
2023/06/13 11:47:17;;;;;;;4.93;2.03;;;23.70;49.30;;;;;;6121808;23;20010;-68
2023/06/13 11:50:03;;;;;;;5.22;1.98;;;23.80;49.70;;;;;;6119052;23;20005;-66
2023/06/13 11:53:08;;;;;;;4.10;2.20;;;23.80;49.40;;;;;;6121261;23;20474;-68
2023/06/13 11:56:04;;;;;;;4.63;2.00;;;23.90;48.80;;;;;;6120579;23;20055;-66
2023/06/13 11:58:52;;;;;;;5.13;2.42;;;23.80;48.60;;;;;;6121618;23;20010;-68
2023/06/13 12:01:37;;;;;;;4.00;2.17;;;23.90;48.60;;;;;;6101286;23;20018;-66
2023/06/13 12:04:25;;;;;;;3.05;2.00;;;23.90;48.60;;;;;;6119683;23;20010;-67
2023/06/13 12:07:13;;;;;;;5.38;1.90;;;23.80;48.30;;;;;;6124366;23;20014;-68
2023/06/13 12:09:59;;;;;;;3.72;2.10;;;23.80;48.40;;;;;;6122397;23;20010;-67
2023/06/13 12:12:58;;;;;;;5.70;2.20;;;23.90;48.40;;;;;;6122586;23;20021;-66
2023/06/13 12:15:44;;;;;;;3.35;1.95;;;24.00;47.90;;;;;;6120371;23;20010;-67
2023/06/13 12:18:30;;;;;;;3.60;2.10;;;24.00;48.40;;;;;;6122819;23;20097;-68
2023/06/13 12:21:16;;;;;;;5.13;2.45;;;24.10;48.20;;;;;;6121585;23;20052;-67
2023/06/13 12:24:04;;;;;;;4.78;2.30;;;24.20;48.00;;;;;;6120574;23;20101;-66
2023/06/13 12:26:51;;;;;;;4.22;2.15;;;24.10;47.50;;;;;;6122553;23;20063;-68
2023/06/13 12:29:39;;;;;;;3.05;1.70;;;24.10;47.60;;;;;;6120976;23;20045;-68
2023/06/13 12:32:25;;;;;;;2.72;2.10;;;24.20;48.00;;;;;;6124594;23;20010;-66
2023/06/13 12:35:12;;;;;;;5.05;2.22;;;24.30;47.50;;;;;;6119959;23;20042;-67
2023/06/13 12:38:00;;;;;;;3.55;2.08;;;24.30;47.40;;;;;;6123519;23;20010;-68
2023/06/13 12:40:51;;;;;;;3.35;1.95;;;24.20;48.10;;;;;;6122058;23;20069;-68
2023/06/13 12:43:42;;;;;;;4.35;2.33;;;24.20;47.70;;;;;;6119942;23;20014;-67
2023/06/13 12:46:28;;;;;;;3.88;2.33;;;24.10;47.60;;;;;;6119955;23;20033;-68
2023/06/13 12:49:15;;;;;;;3.17;1.85;;;24.00;47.40;;;;;;6121350;23;20077;-68
2023/06/13 12:52:01;;;;;;;5.10;2.42;;;24.00;47.70;;;;;;6120960;23;20470;-68
2023/06/13 12:54:47;;;;;;;4.60;1.70;;;24.10;48.20;;;;;;6119211;23;20017;-67
2023/06/13 12:57:33;;;;;;;3.17;2.05;;;24.10;46.80;;;;;;6120612;23;20014;-67
2023/06/13 13:00:20;;;;;;;3.08;1.88;;;24.20;46.70;;;;;;6118993;23;20101;-67
2023/06/13 13:03:06;;;;;;;4.00;1.80;;;24.30;46.50;;;;;;6120666;23;20065;-67
2023/06/13 13:05:55;;;;;;;3.15;2.00;;;24.30;46.10;;;;;;6111607;23;20104;-66
2023/06/13 13:08:41;;;;;;;4.45;2.10;;;24.30;46.20;;;;;;6120502;23;20006;-68
2023/06/13 13:11:27;;;;;;;4.93;2.13;;;24.30;46.40;;;;;;6120265;23;20028;-67
2023/06/13 13:14:13;;;;;;;3.33;1.95;;;24.50;46.70;;;;;;6119439;23;20113;-67
2023/06/13 13:16:59;;;;;;;5.82;2.20;;;24.70;46.20;;;;;;6119385;23;20014;-68
2023/06/13 13:19:46;;;;;;;2.60;1.83;;;24.70;46.50;;;;;;6120032;23;20121;-68
2023/06/13 13:22:32;;;;;;;3.60;1.98;;;24.50;46.40;;;;;;6120826;23;20859;-68
2023/06/13 13:25:18;;;;;;;5.15;2.15;;;24.30;46.50;;;;;;6121177;23;20032;-67
2023/06/13 13:28:05;;;;;;;4.15;2.72;;;24.20;46.70;;;;;;6121153;23;20010;-67
2023/06/13 13:30:50;;;;;;;3.45;1.77;;;24.40;46.90;;;;;;6119855;23;20010;-67
2023/06/13 13:33:36;;;;;;;3.80;1.65;;;24.50;46.80;;;;;;6120752;23;20506;-67
2023/06/13 13:36:22;;;;;;;3.83;2.00;;;24.50;47.10;;;;;;6121314;23;20603;-68
2023/06/13 13:39:10;;;;;;;5.88;2.45;;;24.40;47.10;;;;;;6121103;23;20014;-68
2023/06/13 13:41:56;;;;;;;3.90;1.95;;;24.30;47.00;;;;;;6120606;23;20014;-67
2023/06/13 13:44:42;;;;;;;16.20;2.70;;;24.40;47.00;;;;;;6120801;23;20010;-68
2023/06/13 13:47:28;;;;;;;4.93;1.70;;;24.40;46.90;;;;;;6121312;23;20393;-67
2023/06/13 13:50:15;;;;;;;2.88;1.95;;;24.40;47.40;;;;;;6121267;23;20419;-67
2023/06/13 13:53:01;;;;;;;3.42;2.35;;;24.50;47.20;;;;;;6121119;23;20028;-66
2023/06/13 13:55:47;;;;;;;5.13;2.40;;;24.50;47.30;;;;;;6119921;23;20014;-68
2023/06/13 13:58:33;;;;;;;5.53;2.20;;;24.50;47.30;;;;;;6121181;23;20433;-67
2023/06/13 14:01:20;;;;;;;3.97;2.35;;;24.50;47.30;;;;;;6119409;23;20037;-68
2023/06/13 14:04:06;;;;;;;6.40;2.50;;;24.40;46.70;;;;;;6120311;23;20006;-67
2023/06/13 14:06:52;;;;;;;5.55;2.28;;;24.30;46.70;;;;;;6121831;23;20522;-68
2023/06/13 14:09:38;;;;;;;4.38;2.00;;;24.30;47.00;;;;;;6120302;23;20014;-68
2023/06/13 14:12:24;;;;;;;5.82;1.98;;;24.30;47.40;;;;;;6121691;23;20010;-67
2023/06/13 14:15:10;;;;;;;8.20;2.03;;;24.30;47.50;;;;;;6120678;23;20018;-67
2023/06/13 14:17:56;;;;;;;2.97;1.67;;;24.30;47.70;;;;;;6121427;23;20330;-68
2023/06/13 14:20:43;;;;;;;8.65;2.25;;;24.20;47.80;;;;;;6121528;23;20471;-67
2023/06/13 14:23:28;;;;;;;3.92;2.08;;;24.20;47.90;;;;;;6121014;23;20011;-67
2023/06/13 14:26:14;;;;;;;4.88;1.92;;;24.10;48.00;;;;;;6120738;23;20026;-67
2023/06/13 14:29:00;;;;;;;2.30;1.63;;;24.10;48.10;;;;;;6122709;23;20006;-67
2023/06/13 14:31:46;;;;;;;4.00;2.05;;;24.10;48.10;;;;;;6124745;23;20348;-67